• Join FlightAware (Why Join?)
  • Login
  • US Flag 
10:43PM EDT


 

Airport Tracker/Info


-or-


 

Live Flight TrackerFlight Track Log ✈ UAL6044 ✈ 26-Apr-2013 ✈ KIAD - KIND

Flight Track Log - Related Links

Times and Time Zones

All times are in EDT time to prevent confusion due to time zone crossing. See the UAL6044 flight status page for this flight to view local times or setup timezone preferences in your user account.

Time Position Orientation Groundspeed Altitude Reporting Facility
EDT Latitude Longitude Course Direction KTS MPH feet Rate Location/Type
12:43PM 38.9500 -77.5000 288° West 168 193 1,300  Level Potomac TRACON
12:44PM 38.9167 -77.5667 237° Southwest 224 258 3,300 2,280 Climbing Potomac TRACON
12:45PM 38.9086 -77.6297 261° West 249 287 5,000 2,940 Climbing Washington Center
12:46PM 38.8833 -77.7591 270° West  Level FlightAware Approximate
12:46PM 38.8992 -77.6989 260° West 254 292 8,100  Level Washington Center
12:47PM 38.8737 -77.8672 260° West  Level FlightAware Approximate
12:47PM 38.8850 -77.7944 259° West 260 299 9,800  Level Washington Center
12:48PM 38.8844 -77.9710 288° West  Level FlightAware Approximate
12:48PM 38.8769 -77.8794 263° West 266 306 10,200  Level Washington Center
12:49PM 38.9105 -78.0751 288° West  Level FlightAware Approximate
12:49PM 38.8858 -77.9706 277° West 281 323 12,000  Level Washington Center
12:50PM 38.9150 -78.0700 291° West 281 323 13,700 1,800 Climbing Washington Center
12:51PM 38.9422 -78.1592 291° West 276 318 15,600 1,200 Climbing Washington Center
12:52PM 38.9628 -78.2667 284° West 283 326 16,200 1,080 Climbing Washington Center
12:53PM 38.9664 -78.3842 272° West 311 358 17,800 1,560 Climbing Washington Center
12:54PM 38.9697 -78.5072 272° West 330 380 19,300 1,740 Climbing Washington Center
12:55PM 38.9733 -78.6222 272° West 338 389 21,300 2,040 Climbing Washington Center
12:56PM 38.9767 -78.7344 272° West 330 380 23,400 1,800 Climbing Washington Center
12:57PM 38.9797 -78.8467 272° West 324 373 25,000 1,320 Climbing Washington Center
12:58PM 38.9831 -78.9617 272° West 324 373 26,100 1,320 Climbing Washington Center
12:59PM 38.9858 -79.0819 272° West 331 381 27,700 1,260 Climbing Washington Center
01:00PM 38.9886 -79.1997 272° West 331 381 28,700 1,200 Climbing Washington Center
01:01PM 38.9911 -79.3172 272° West 331 381 30,100 1,620 Climbing Washington Center
01:02PM 38.9939 -79.4297 272° West 323 372 32,000 1,920 Climbing Washington Center
01:03PM 38.9969 -79.5286 272° West 307 353 34,000 1,380 Climbing Washington Center
01:04PM 39.0000 -79.6250 272° West 293 337 34,900 780 Climbing Washington Center
01:05PM 39.0025 -79.7372 272° West 285 328 35,600 420 Climbing Washington Center
01:06PM 39.0014 -79.8981 270° West 302 348 36,000 120 Climbing Indianapolis Center
01:07PM 39.0039 -80.0117 272° West 325 374 36,000  Level Indianapolis Center
01:08PM 39.0064 -80.1478 271° West 346 398 36,000  Level Indianapolis Center
01:09PM 39.0356 -80.2700 287° West 362 417 36,000  Level Indianapolis Center
01:10PM 39.0683 -80.3942 289° West 367 422 36,000  Level Indianapolis Center
01:12PM 39.1025 -80.5200 289° West 372 428 36,000  Level Indianapolis Center
01:13PM 39.1333 -80.6478 287° West 375 432 36,000  Level Indianapolis Center
01:14PM 39.1656 -80.7711 289° West 367 422 36,000  Level Indianapolis Center
01:15PM 39.2031 -80.9203 288° West 366 421 36,000  Level Indianapolis Center
01:16PM 39.2344 -81.0439 288° West 365 420 36,000  Level Indianapolis Center
01:17PM 39.2658 -81.1664 288° West 362 417 36,000  Level Indianapolis Center
01:18PM 39.2961 -81.2864 288° West 355 409 36,000  Level Indianapolis Center
01:19PM 39.3256 -81.4083 287° West 356 410 36,000  Level Indianapolis Center
01:20PM 39.3564 -81.5294 288° West 356 410 36,000  Level Indianapolis Center
01:21PM 39.3919 -81.6758 287° West 357 411 36,000  Level Indianapolis Center
01:22PM 39.4217 -81.7978 288° West 357 411 36,000  Level Indianapolis Center
01:23PM 39.4514 -81.9175 288° West 353 406 36,000  Level Indianapolis Center
01:24PM 39.4797 -82.0372 287° West 351 404 36,000  Level Indianapolis Center
01:25PM 39.5092 -82.1578 288° West 339 390 36,000 -480 Level Indianapolis Center
01:26PM 39.5242 -82.2769 279° West 341 392 35,100 -540 Descending Indianapolis Center
01:27PM 39.5222 -82.3953 269° West 327 376 35,000 -360 Descending Indianapolis Center
01:28PM 39.5206 -82.5164 269° West 332 382 34,400 -1,500 Descending Indianapolis Center
01:29PM 39.5186 -82.6553 269° West 328 377 32,000 -2,040 Descending Indianapolis Center
01:30PM 39.5403 -82.7769 283° West 350 403 30,200 -1,020 Descending Indianapolis Center
01:31PM 39.5747 -82.9033 290° West 369 425 30,000 -120 Descending Indianapolis Center
01:32PM 39.6103 -83.0289 290° West 368 423 30,000  Level Indianapolis Center
01:33PM 39.6436 -83.1539 289° West 364 419 30,000  Level Indianapolis Center
01:34PM 39.6783 -83.2772 290° West 362 417 30,000  Level Indianapolis Center
01:35PM 39.7128 -83.4022 290° West 361 415 30,000  Level Indianapolis Center
01:36PM 39.7467 -83.5283 289° West 360 414 30,000  Level Indianapolis Center
01:37PM 39.7814 -83.6558 290° West 364 419 30,000  Level Indianapolis Center
01:38PM 39.8164 -83.7819 290° West 364 419 30,000  Level Indianapolis Center
01:39PM 39.8494 -83.9072 289° West 363 418 30,000  Level Indianapolis Center
01:40PM 39.8775 -84.0569 284° West 363 418 30,000  Level Indianapolis Center
01:41PM 39.8958 -84.1875 280° West 362 417 30,000  Level Indianapolis Center
01:43PM 39.9133 -84.3197 280° West 367 422 30,000  Level Indianapolis Center
01:44PM 39.9311 -84.4511 280° West 366 421 30,000 -780 Level Indianapolis Center
01:45PM 39.9500 -84.5833 281° West 367 422 28,500 -1,800 Descending Indianapolis Center
01:46PM 39.9689 -84.7211 280° West 381 438 26,400 -1,260 Descending Indianapolis Center
01:47PM 39.9883 -84.8575 281° West 379 436 26,000 -1,020 Descending Indianapolis Center
01:48PM 40.0072 -85.0044 280° West 380 437 24,400 -1,020 Descending Indianapolis Center
01:49PM 40.0242 -85.1350 280° West 367 422 24,000 -1,680 Descending Indianapolis Center
01:50PM 40.0417 -85.2600 280° West 350 403 21,000 -3,660 Descending Indianapolis Center
01:51PM 40.0575 -85.3800 280° West 336 387 16,600 -4,080 Descending Indianapolis Center
01:52PM 40.0750 -85.5206 279° West 335 386 12,700 -2,700 Descending Indianapolis Center
01:53PM 40.0753 -85.6281 270° West 299 344 11,100 -840 Descending Indianapolis Center
01:54PM 40.0542 -85.7281 255° West 285 328 11,000 -60 Descending Indianapolis Center
01:55PM 40.0347 -85.8253 255° West 279 321 11,000 -600 Level Indianapolis Center
01:56PM 40.0081 -85.9200 250° West 277 319 9,800 -1,500 Descending Indianapolis Center
01:57PM 39.9486 -85.9811 218° Southwest 271 312 7,900 -1,800 Descending Indianapolis Center
01:58PM 39.8983 -86.0528 228° Southwest 267 307 6,100 -1,680 Descending Indianapolis Center
01:59PM 39.8469 -86.1167 224° Southwest 261 300 4,500 -1,620 Descending Indianapolis Center